sensor_id;sensor_type;location;lat;lon;timestamp;P1;durP1;ratioP1;P2;durP2;ratioP2
38379;SDS011;38377;47.418;18.882;2024-02-16T00:01:26;21.25;;;13.13;;
38379;SDS011;38377;47.418;18.882;2024-02-16T00:03:57;27.33;;;13.38;;
38379;SDS011;38377;47.418;18.882;2024-02-16T00:06:22;23.92;;;14.38;;
38379;SDS011;38377;47.418;18.882;2024-02-16T00:08:48;23.70;;;14.68;;
38379;SDS011;38377;47.418;18.882;2024-02-16T00:11:13;21.40;;;13.95;;
38379;SDS011;38377;47.418;18.882;2024-02-16T00:13:39;26.30;;;15.00;;
38379;SDS011;38377;47.418;18.882;2024-02-16T00:16:05;22.60;;;14.50;;
38379;SDS011;38377;47.418;18.882;2024-02-16T00:18:31;26.42;;;13.65;;
38379;SDS011;38377;47.418;18.882;2024-02-16T00:20:56;24.85;;;14.25;;
38379;SDS011;38377;47.418;18.882;2024-02-16T00:23:22;23.00;;;14.13;;
38379;SDS011;38377;47.418;18.882;2024-02-16T00:25:58;26.58;;;14.07;;
38379;SDS011;38377;47.418;18.882;2024-02-16T00:28:23;25.60;;;14.23;;
38379;SDS011;38377;47.418;18.882;2024-02-16T00:30:54;25.98;;;13.45;;
38379;SDS011;38377;47.418;18.882;2024-02-16T00:33:22;27.48;;;13.43;;
38379;SDS011;38377;47.418;18.882;2024-02-16T00:35:47;24.92;;;13.98;;
38379;SDS011;38377;47.418;18.882;2024-02-16T00:38:14;22.75;;;14.07;;
38379;SDS011;38377;47.418;18.882;2024-02-16T00:40:40;27.48;;;15.15;;
38379;SDS011;38377;47.418;18.882;2024-02-16T00:43:08;25.30;;;12.73;;
38379;SDS011;38377;47.418;18.882;2024-02-16T00:45:34;23.50;;;13.52;;
38379;SDS011;38377;47.418;18.882;2024-02-16T00:48:00;24.70;;;13.40;;
38379;SDS011;38377;47.418;18.882;2024-02-16T00:50:27;25.02;;;14.73;;
38379;SDS011;38377;47.418;18.882;2024-02-16T00:52:52;22.73;;;12.70;;
38379;SDS011;38377;47.418;18.882;2024-02-16T00:55:18;23.13;;;13.18;;
38379;SDS011;38377;47.418;18.882;2024-02-16T00:57:44;31.30;;;14.40;;
38379;SDS011;38377;47.418;18.882;2024-02-16T01:00:09;24.50;;;13.48;;
38379;SDS011;38377;47.418;18.882;2024-02-16T01:02:36;27.98;;;14.52;;
38379;SDS011;38377;47.418;18.882;2024-02-16T01:05:01;23.67;;;13.57;;
38379;SDS011;38377;47.418;18.882;2024-02-16T01:07:27;24.50;;;13.57;;
38379;SDS011;38377;47.418;18.882;2024-02-16T01:09:53;26.13;;;13.98;;
38379;SDS011;38377;47.418;18.882;2024-02-16T01:12:23;25.95;;;14.35;;
38379;SDS011;38377;47.418;18.882;2024-02-16T01:14:49;30.98;;;15.82;;
38379;SDS011;38377;47.418;18.882;2024-02-16T01:17:14;28.40;;;16.35;;
38379;SDS011;38377;47.418;18.882;2024-02-16T01:19:40;24.48;;;14.38;;
38379;SDS011;38377;47.418;18.882;2024-02-16T01:22:06;28.67;;;15.88;;
38379;SDS011;38377;47.418;18.882;2024-02-16T01:24:31;26.55;;;13.27;;
38379;SDS011;38377;47.418;18.882;2024-02-16T01:26:57;21.85;;;13.45;;
38379;SDS011;38377;47.418;18.882;2024-02-16T01:29:23;26.00;;;14.10;;
38379;SDS011;38377;47.418;18.882;2024-02-16T01:31:48;24.65;;;14.25;;
38379;SDS011;38377;47.418;18.882;2024-02-16T01:34:14;20.98;;;13.30;;
38379;SDS011;38377;47.418;18.882;2024-02-16T01:36:42;26.98;;;14.48;;
38379;SDS011;38377;47.418;18.882;2024-02-16T01:39:08;27.48;;;13.73;;
38379;SDS011;38377;47.418;18.882;2024-02-16T01:41:33;23.60;;;13.60;;
38379;SDS011;38377;47.418;18.882;2024-02-16T01:44:03;25.30;;;13.98;;
38379;SDS011;38377;47.418;18.882;2024-02-16T01:46:28;26.17;;;14.02;;
38379;SDS011;38377;47.418;18.882;2024-02-16T01:48:54;22.55;;;11.93;;
38379;SDS011;38377;47.418;18.882;2024-02-16T01:51:21;23.25;;;13.45;;
38379;SDS011;38377;47.418;18.882;2024-02-16T01:53:49;26.45;;;14.00;;
38379;SDS011;38377;47.418;18.882;2024-02-16T01:56:15;26.00;;;14.88;;
38379;SDS011;38377;47.418;18.882;2024-02-16T01:58:41;26.33;;;12.82;;
38379;SDS011;38377;47.418;18.882;2024-02-16T02:01:07;25.30;;;13.95;;
38379;SDS011;38377;47.418;18.882;2024-02-16T02:03:33;22.65;;;13.23;;
38379;SDS011;38377;47.418;18.882;2024-02-16T02:06:00;31.35;;;15.27;;
38379;SDS011;38377;47.418;18.882;2024-02-16T02:08:25;25.17;;;13.60;;
38379;SDS011;38377;47.418;18.882;2024-02-16T02:10:54;32.70;;;15.93;;
38379;SDS011;38377;47.418;18.882;2024-02-16T02:13:19;28.58;;;13.73;;
38379;SDS011;38377;47.418;18.882;2024-02-16T02:15:46;24.60;;;14.13;;
38379;SDS011;38377;47.418;18.882;2024-02-16T02:18:12;24.35;;;13.45;;
38379;SDS011;38377;47.418;18.882;2024-02-16T02:20:38;21.73;;;13.45;;
38379;SDS011;38377;47.418;18.882;2024-02-16T02:23:04;24.05;;;13.48;;
38379;SDS011;38377;47.418;18.882;2024-02-16T02:25:30;27.85;;;14.10;;
38379;SDS011;38377;47.418;18.882;2024-02-16T02:27:56;23.77;;;13.63;;
38379;SDS011;38377;47.418;18.882;2024-02-16T02:30:22;24.20;;;12.90;;
38379;SDS011;38377;47.418;18.882;2024-02-16T02:32:49;24.02;;;13.77;;
38379;SDS011;38377;47.418;18.882;2024-02-16T02:35:15;23.58;;;13.00;;
38379;SDS011;38377;47.418;18.882;2024-02-16T02:37:41;24.75;;;14.63;;
38379;SDS011;38377;47.418;18.882;2024-02-16T02:40:07;27.73;;;14.65;;
38379;SDS011;38377;47.418;18.882;2024-02-16T02:42:34;26.98;;;14.15;;
38379;SDS011;38377;47.418;18.882;2024-02-16T02:45:00;22.48;;;14.30;;
38379;SDS011;38377;47.418;18.882;2024-02-16T02:47:26;22.67;;;13.05;;
38379;SDS011;38377;47.418;18.882;2024-02-16T02:49:51;24.75;;;13.05;;
38379;SDS011;38377;47.418;18.882;2024-02-16T02:52:17;31.58;;;15.07;;
38379;SDS011;38377;47.418;18.882;2024-02-16T02:54:43;25.27;;;14.57;;
38379;SDS011;38377;47.418;18.882;2024-02-16T02:57:09;24.25;;;14.02;;
38379;SDS011;38377;47.418;18.882;2024-02-16T02:59:34;27.95;;;14.77;;
38379;SDS011;38377;47.418;18.882;2024-02-16T03:02:00;22.97;;;13.33;;
38379;SDS011;38377;47.418;18.882;2024-02-16T03:04:26;26.08;;;14.40;;
38379;SDS011;38377;47.418;18.882;2024-02-16T03:06:52;26.90;;;13.87;;
38379;SDS011;38377;47.418;18.882;2024-02-16T03:09:17;25.63;;;13.67;;
38379;SDS011;38377;47.418;18.882;2024-02-16T03:11:43;27.38;;;14.52;;
38379;SDS011;38377;47.418;18.882;2024-02-16T03:14:08;25.35;;;14.63;;
38379;SDS011;38377;47.418;18.882;2024-02-16T03:16:34;23.77;;;13.43;;
38379;SDS011;38377;47.418;18.882;2024-02-16T03:19:00;26.08;;;14.73;;
38379;SDS011;38377;47.418;18.882;2024-02-16T03:21:25;24.90;;;14.80;;
38379;SDS011;38377;47.418;18.882;2024-02-16T03:23:51;28.07;;;15.23;;
38379;SDS011;38377;47.418;18.882;2024-02-16T03:26:17;28.50;;;15.77;;
38379;SDS011;38377;47.418;18.882;2024-02-16T03:28:45;34.63;;;15.82;;
38379;SDS011;38377;47.418;18.882;2024-02-16T03:31:15;29.75;;;15.38;;
38379;SDS011;38377;47.418;18.882;2024-02-16T03:33:42;28.45;;;15.75;;
38379;SDS011;38377;47.418;18.882;2024-02-16T03:36:07;29.13;;;15.75;;
38379;SDS011;38377;47.418;18.882;2024-02-16T03:38:34;29.10;;;15.82;;
38379;SDS011;38377;47.418;18.882;2024-02-16T03:40:59;31.83;;;15.35;;
38379;SDS011;38377;47.418;18.882;2024-02-16T03:43:25;28.08;;;15.35;;
38379;SDS011;38377;47.418;18.882;2024-02-16T03:45:51;29.27;;;15.03;;
38379;SDS011;38377;47.418;18.882;2024-02-16T03:48:17;32.40;;;16.17;;
38379;SDS011;38377;47.418;18.882;2024-02-16T03:50:42;28.33;;;15.73;;
38379;SDS011;38377;47.418;18.882;2024-02-16T03:53:08;27.43;;;14.87;;
38379;SDS011;38377;47.418;18.882;2024-02-16T03:55:36;30.77;;;17.07;;
38379;SDS011;38377;47.418;18.882;2024-02-16T03:58:03;23.23;;;14.43;;
38379;SDS011;38377;47.418;18.882;2024-02-16T04:00:28;26.73;;;14.93;;
38379;SDS011;38377;47.418;18.882;2024-02-16T04:02:54;27.30;;;15.13;;
38379;SDS011;38377;47.418;18.882;2024-02-16T04:05:20;31.43;;;14.83;;
38379;SDS011;38377;47.418;18.882;2024-02-16T04:07:56;27.57;;;14.80;;
38379;SDS011;38377;47.418;18.882;2024-02-16T04:10:31;27.33;;;15.80;;
38379;SDS011;38377;47.418;18.882;2024-02-16T04:12:56;28.20;;;15.23;;
38379;SDS011;38377;47.418;18.882;2024-02-16T04:15:30;26.90;;;14.70;;
38379;SDS011;38377;47.418;18.882;2024-02-16T04:18:00;28.30;;;15.60;;
38379;SDS011;38377;47.418;18.882;2024-02-16T04:20:33;29.20;;;14.50;;
38379;SDS011;38377;47.418;18.882;2024-02-16T04:23:03;28.70;;;16.10;;
38379;SDS011;38377;47.418;18.882;2024-02-16T04:25:28;29.03;;;15.37;;
38379;SDS011;38377;47.418;18.882;2024-02-16T04:27:56;26.03;;;15.67;;
38379;SDS011;38377;47.418;18.882;2024-02-16T04:30:22;30.33;;;16.37;;
38379;SDS011;38377;47.418;18.882;2024-02-16T04:32:48;28.67;;;15.57;;
38379;SDS011;38377;47.418;18.882;2024-02-16T04:35:13;32.13;;;15.57;;
38379;SDS011;38377;47.418;18.882;2024-02-16T04:37:40;31.10;;;16.20;;
38379;SDS011;38377;47.418;18.882;2024-02-16T04:40:13;30.27;;;16.40;;
38379;SDS011;38377;47.418;18.882;2024-02-16T04:42:44;21.65;;;12.98;;
38379;SDS011;38377;47.418;18.882;2024-02-16T04:45:12;29.73;;;15.13;;
38379;SDS011;38377;47.418;18.882;2024-02-16T04:47:38;27.53;;;15.23;;
38379;SDS011;38377;47.418;18.882;2024-02-16T04:50:07;29.17;;;16.10;;
38379;SDS011;38377;47.418;18.882;2024-02-16T04:52:36;24.70;;;14.60;;
38379;SDS011;38377;47.418;18.882;2024-02-16T04:55:05;28.83;;;16.27;;
38379;SDS011;38377;47.418;18.882;2024-02-16T04:57:32;26.73;;;14.93;;
38379;SDS011;38377;47.418;18.882;2024-02-16T04:59:58;26.93;;;14.97;;
38379;SDS011;38377;47.418;18.882;2024-02-16T05:02:24;26.13;;;15.47;;
38379;SDS011;38377;47.418;18.882;2024-02-16T05:04:49;31.40;;;16.37;;
38379;SDS011;38377;47.418;18.882;2024-02-16T05:07:15;33.37;;;15.90;;
38379;SDS011;38377;47.418;18.882;2024-02-16T05:09:41;29.03;;;15.63;;
38379;SDS011;38377;47.418;18.882;2024-02-16T05:12:08;31.27;;;14.93;;
38379;SDS011;38377;47.418;18.882;2024-02-16T05:14:34;27.53;;;15.00;;
38379;SDS011;38377;47.418;18.882;2024-02-16T05:17:00;32.87;;;16.77;;
38379;SDS011;38377;47.418;18.882;2024-02-16T05:19:26;27.33;;;15.47;;
38379;SDS011;38377;47.418;18.882;2024-02-16T05:21:51;29.87;;;16.47;;
38379;SDS011;38377;47.418;18.882;2024-02-16T05:24:17;34.73;;;15.83;;
38379;SDS011;38377;47.418;18.882;2024-02-16T05:26:42;32.63;;;16.60;;
38379;SDS011;38377;47.418;18.882;2024-02-16T05:29:09;33.17;;;16.03;;
38379;SDS011;38377;47.418;18.882;2024-02-16T05:31:35;30.77;;;16.77;;
38379;SDS011;38377;47.418;18.882;2024-02-16T05:34:01;29.90;;;16.00;;
38379;SDS011;38377;47.418;18.882;2024-02-16T05:36:26;33.70;;;17.03;;
38379;SDS011;38377;47.418;18.882;2024-02-16T05:38:55;33.17;;;16.43;;
38379;SDS011;38377;47.418;18.882;2024-02-16T05:41:21;32.47;;;16.73;;
38379;SDS011;38377;47.418;18.882;2024-02-16T05:43:47;29.03;;;16.10;;
38379;SDS011;38377;47.418;18.882;2024-02-16T05:46:16;25.17;;;14.93;;
38379;SDS011;38377;47.418;18.882;2024-02-16T05:48:42;30.40;;;16.63;;
38379;SDS011;38377;47.418;18.882;2024-02-16T05:51:09;27.97;;;15.10;;
38379;SDS011;38377;47.418;18.882;2024-02-16T05:53:39;30.73;;;16.17;;
38379;SDS011;38377;47.418;18.882;2024-02-16T05:56:06;29.43;;;15.93;;
38379;SDS011;38377;47.418;18.882;2024-02-16T05:58:32;29.63;;;15.93;;
38379;SDS011;38377;47.418;18.882;2024-02-16T06:00:58;30.20;;;16.77;;
38379;SDS011;38377;47.418;18.882;2024-02-16T06:03:24;32.87;;;16.40;;
38379;SDS011;38377;47.418;18.882;2024-02-16T06:05:51;38.40;;;17.67;;
38379;SDS011;38377;47.418;18.882;2024-02-16T06:08:17;30.70;;;17.60;;
38379;SDS011;38377;47.418;18.882;2024-02-16T06:10:44;31.23;;;16.30;;
38379;SDS011;38377;47.418;18.882;2024-02-16T06:13:15;39.73;;;18.10;;
38379;SDS011;38377;47.418;18.882;2024-02-16T06:15:41;34.63;;;17.37;;
38379;SDS011;38377;47.418;18.882;2024-02-16T06:18:08;34.27;;;19.23;;
38379;SDS011;38377;47.418;18.882;2024-02-16T06:20:34;40.67;;;19.97;;
38379;SDS011;38377;47.418;18.882;2024-02-16T06:23:00;33.97;;;17.13;;
38379;SDS011;38377;47.418;18.882;2024-02-16T06:25:25;28.67;;;17.10;;
38379;SDS011;38377;47.418;18.882;2024-02-16T06:27:51;28.37;;;15.10;;
38379;SDS011;38377;47.418;18.882;2024-02-16T06:30:16;30.45;;;15.77;;
38379;SDS011;38377;47.418;18.882;2024-02-16T06:32:42;28.25;;;15.02;;
38379;SDS011;38377;47.418;18.882;2024-02-16T06:35:08;27.67;;;15.70;;
38379;SDS011;38377;47.418;18.882;2024-02-16T06:37:34;32.17;;;16.30;;
38379;SDS011;38377;47.418;18.882;2024-02-16T06:39:59;27.15;;;14.75;;
38379;SDS011;38377;47.418;18.882;2024-02-16T06:42:25;27.08;;;15.85;;
38379;SDS011;38377;47.418;18.882;2024-02-16T06:44:51;29.33;;;15.32;;
38379;SDS011;38377;47.418;18.882;2024-02-16T06:47:16;31.02;;;17.17;;
38379;SDS011;38377;47.418;18.882;2024-02-16T06:49:42;27.90;;;15.65;;
38379;SDS011;38377;47.418;18.882;2024-02-16T06:52:08;26.33;;;14.45;;
38379;SDS011;38377;47.418;18.882;2024-02-16T06:54:34;25.38;;;14.57;;
38379;SDS011;38377;47.418;18.882;2024-02-16T06:57:00;28.35;;;14.48;;
38379;SDS011;38377;47.418;18.882;2024-02-16T06:59:26;28.80;;;14.90;;
38379;SDS011;38377;47.418;18.882;2024-02-16T07:01:52;24.33;;;14.27;;
38379;SDS011;38377;47.418;18.882;2024-02-16T07:04:18;26.80;;;14.57;;
38379;SDS011;38377;47.418;18.882;2024-02-16T07:06:43;27.25;;;14.52;;
38379;SDS011;38377;47.418;18.882;2024-02-16T07:09:09;23.35;;;13.55;;
38379;SDS011;38377;47.418;18.882;2024-02-16T07:11:35;24.60;;;13.77;;
38379;SDS011;38377;47.418;18.882;2024-02-16T07:14:00;24.95;;;14.98;;
38379;SDS011;38377;47.418;18.882;2024-02-16T07:16:27;24.73;;;13.15;;
38379;SDS011;38377;47.418;18.882;2024-02-16T07:18:53;24.65;;;13.32;;
38379;SDS011;38377;47.418;18.882;2024-02-16T07:21:18;23.58;;;13.75;;
38379;SDS011;38377;47.418;18.882;2024-02-16T07:23:45;26.52;;;13.70;;
38379;SDS011;38377;47.418;18.882;2024-02-16T07:26:11;25.27;;;13.73;;
38379;SDS011;38377;47.418;18.882;2024-02-16T07:28:38;25.52;;;13.82;;
38379;SDS011;38377;47.418;18.882;2024-02-16T07:31:03;27.15;;;14.38;;
38379;SDS011;38377;47.418;18.882;2024-02-16T07:33:29;27.48;;;14.38;;
38379;SDS011;38377;47.418;18.882;2024-02-16T07:35:55;26.08;;;15.05;;
38379;SDS011;38377;47.418;18.882;2024-02-16T07:38:20;28.25;;;14.98;;
38379;SDS011;38377;47.418;18.882;2024-02-16T07:40:47;27.95;;;15.63;;
38379;SDS011;38377;47.418;18.882;2024-02-16T07:43:12;25.58;;;15.20;;
38379;SDS011;38377;47.418;18.882;2024-02-16T07:45:38;29.05;;;15.13;;
38379;SDS011;38377;47.418;18.882;2024-02-16T07:48:05;28.98;;;15.95;;
38379;SDS011;38377;47.418;18.882;2024-02-16T07:50:31;30.67;;;15.52;;
38379;SDS011;38377;47.418;18.882;2024-02-16T07:52:57;30.52;;;15.80;;
38379;SDS011;38377;47.418;18.882;2024-02-16T07:55:23;26.00;;;16.23;;
38379;SDS011;38377;47.418;18.882;2024-02-16T07:57:49;28.17;;;15.02;;
38379;SDS011;38377;47.418;18.882;2024-02-16T08:00:15;26.92;;;14.57;;
38379;SDS011;38377;47.418;18.882;2024-02-16T08:02:41;23.45;;;14.07;;
38379;SDS011;38377;47.418;18.882;2024-02-16T08:05:08;23.30;;;12.82;;
38379;SDS011;38377;47.418;18.882;2024-02-16T08:07:41;23.63;;;14.23;;
38379;SDS011;38377;47.418;18.882;2024-02-16T08:10:07;27.77;;;13.60;;
38379;SDS011;38377;47.418;18.882;2024-02-16T08:12:33;20.80;;;11.82;;
38379;SDS011;38377;47.418;18.882;2024-02-16T08:15:02;21.67;;;12.85;;
38379;SDS011;38377;47.418;18.882;2024-02-16T08:17:29;22.92;;;14.45;;
38379;SDS011;38377;47.418;18.882;2024-02-16T08:19:56;21.52;;;11.93;;
38379;SDS011;38377;47.418;18.882;2024-02-16T08:22:21;19.33;;;11.48;;
38379;SDS011;38377;47.418;18.882;2024-02-16T08:24:48;20.77;;;11.80;;
38379;SDS011;38377;47.418;18.882;2024-02-16T08:27:14;21.33;;;12.00;;
38379;SDS011;38377;47.418;18.882;2024-02-16T08:29:41;19.40;;;11.65;;
38379;SDS011;38377;47.418;18.882;2024-02-16T08:32:07;18.38;;;10.73;;
38379;SDS011;38377;47.418;18.882;2024-02-16T08:34:33;18.08;;;11.10;;
38379;SDS011;38377;47.418;18.882;2024-02-16T08:37:02;17.63;;;10.32;;
38379;SDS011;38377;47.418;18.882;2024-02-16T08:39:28;18.83;;;11.10;;
38379;SDS011;38377;47.418;18.882;2024-02-16T08:41:55;18.30;;;10.75;;
38379;SDS011;38377;47.418;18.882;2024-02-16T08:44:21;16.27;;;10.43;;
38379;SDS011;38377;47.418;18.882;2024-02-16T08:46:46;17.38;;;10.25;;
38379;SDS011;38377;47.418;18.882;2024-02-16T08:49:14;21.20;;;10.82;;
38379;SDS011;38377;47.418;18.882;2024-02-16T08:51:40;15.07;;;9.35;;
38379;SDS011;38377;47.418;18.882;2024-02-16T08:54:06;18.48;;;9.70;;
38379;SDS011;38377;47.418;18.882;2024-02-16T08:56:32;18.10;;;10.65;;
38379;SDS011;38377;47.418;18.882;2024-02-16T08:59:00;18.00;;;10.90;;
38379;SDS011;38377;47.418;18.882;2024-02-16T09:01:32;17.02;;;9.23;;
38379;SDS011;38377;47.418;18.882;2024-02-16T09:04:01;19.10;;;11.45;;
38379;SDS011;38377;47.418;18.882;2024-02-16T09:06:27;21.65;;;10.23;;
38379;SDS011;38377;47.418;18.882;2024-02-16T09:08:53;14.52;;;9.73;;
38379;SDS011;38377;47.418;18.882;2024-02-16T09:11:19;18.13;;;9.88;;
38379;SDS011;38377;47.418;18.882;2024-02-16T09:13:45;24.55;;;10.18;;
38379;SDS011;38377;47.418;18.882;2024-02-16T09:16:11;18.45;;;10.52;;
38379;SDS011;38377;47.418;18.882;2024-02-16T09:18:36;15.07;;;10.45;;
38379;SDS011;38377;47.418;18.882;2024-02-16T09:21:03;14.75;;;9.30;;
38379;SDS011;38377;47.418;18.882;2024-02-16T09:23:29;12.48;;;7.70;;
38379;SDS011;38377;47.418;18.882;2024-02-16T09:25:56;17.00;;;7.45;;
38379;SDS011;38377;47.418;18.882;2024-02-16T09:28:24;14.20;;;8.38;;
38379;SDS011;38377;47.418;18.882;2024-02-16T09:30:49;12.93;;;7.70;;
38379;SDS011;38377;47.418;18.882;2024-02-16T09:33:15;11.45;;;6.47;;
38379;SDS011;38377;47.418;18.882;2024-02-16T09:35:41;12.65;;;7.07;;
38379;SDS011;38377;47.418;18.882;2024-02-16T09:38:06;11.82;;;7.28;;
38379;SDS011;38377;47.418;18.882;2024-02-16T09:40:34;15.02;;;7.78;;
38379;SDS011;38377;47.418;18.882;2024-02-16T09:43:00;14.10;;;8.18;;
38379;SDS011;38377;47.418;18.882;2024-02-16T09:45:26;13.48;;;7.47;;
38379;SDS011;38377;47.418;18.882;2024-02-16T09:47:53;11.93;;;6.68;;
38379;SDS011;38377;47.418;18.882;2024-02-16T09:50:20;12.98;;;8.43;;
38379;SDS011;38377;47.418;18.882;2024-02-16T09:52:47;18.27;;;7.60;;
38379;SDS011;38377;47.418;18.882;2024-02-16T09:55:13;12.43;;;6.82;;
38379;SDS011;38377;47.418;18.882;2024-02-16T09:57:40;20.30;;;8.23;;
38379;SDS011;38377;47.418;18.882;2024-02-16T10:00:06;13.82;;;7.43;;
38379;SDS011;38377;47.418;18.882;2024-02-16T10:02:44;17.33;;;8.07;;
38379;SDS011;38377;47.418;18.882;2024-02-16T10:05:12;11.70;;;8.02;;
38379;SDS011;38377;47.418;18.882;2024-02-16T10:07:47;17.05;;;8.75;;
38379;SDS011;38377;47.418;18.882;2024-02-16T10:10:23;12.55;;;6.88;;
38379;SDS011;38377;47.418;18.882;2024-02-16T10:12:50;13.40;;;7.55;;
38379;SDS011;38377;47.418;18.882;2024-02-16T10:15:34;15.48;;;8.73;;
38379;SDS011;38377;47.418;18.882;2024-02-16T10:18:04;12.85;;;7.60;;
38379;SDS011;38377;47.418;18.882;2024-02-16T10:20:31;15.88;;;8.23;;
38379;SDS011;38377;47.418;18.882;2024-02-16T10:25:29;12.88;;;6.40;;
38379;SDS011;38377;47.418;18.882;2024-02-16T10:27:55;13.43;;;7.53;;
38379;SDS011;38377;47.418;18.882;2024-02-16T10:30:23;13.32;;;8.02;;
38379;SDS011;38377;47.418;18.882;2024-02-16T10:32:55;10.90;;;6.78;;
38379;SDS011;38377;47.418;18.882;2024-02-16T10:35:20;11.80;;;6.20;;
38379;SDS011;38377;47.418;18.882;2024-02-16T10:37:48;10.30;;;5.50;;
38379;SDS011;38377;47.418;18.882;2024-02-16T10:40:14;9.15;;;5.93;;
38379;SDS011;38377;47.418;18.882;2024-02-16T10:42:44;10.75;;;6.45;;
38379;SDS011;38377;47.418;18.882;2024-02-16T10:45:11;10.63;;;6.57;;
38379;SDS011;38377;47.418;18.882;2024-02-16T10:47:40;12.50;;;6.25;;
38379;SDS011;38377;47.418;18.882;2024-02-16T10:50:06;11.32;;;6.38;;
38379;SDS011;38377;47.418;18.882;2024-02-16T10:52:32;9.57;;;5.43;;
38379;SDS011;38377;47.418;18.882;2024-02-16T10:54:59;10.07;;;5.15;;
38379;SDS011;38377;47.418;18.882;2024-02-16T10:57:26;10.40;;;5.38;;
38379;SDS011;38377;47.418;18.882;2024-02-16T10:59:52;8.63;;;5.82;;
38379;SDS011;38377;47.418;18.882;2024-02-16T11:02:19;8.52;;;5.88;;
38379;SDS011;38377;47.418;18.882;2024-02-16T11:04:46;14.35;;;6.28;;
38379;SDS011;38377;47.418;18.882;2024-02-16T11:07:17;8.35;;;5.38;;
38379;SDS011;38377;47.418;18.882;2024-02-16T11:09:44;12.05;;;6.18;;
38379;SDS011;38377;47.418;18.882;2024-02-16T11:12:14;11.30;;;6.25;;
38379;SDS011;38377;47.418;18.882;2024-02-16T11:17:19;7.88;;;5.72;;
38379;SDS011;38377;47.418;18.882;2024-02-16T11:19:46;8.98;;;5.65;;
38379;SDS011;38377;47.418;18.882;2024-02-16T11:22:19;11.15;;;5.72;;
38379;SDS011;38377;47.418;18.882;2024-02-16T11:24:46;26.70;;;7.03;;
38379;SDS011;38377;47.418;18.882;2024-02-16T11:27:12;10.15;;;6.05;;
38379;SDS011;38377;47.418;18.882;2024-02-16T11:29:40;10.95;;;6.20;;
38379;SDS011;38377;47.418;18.882;2024-02-16T11:32:06;11.27;;;6.55;;
38379;SDS011;38377;47.418;18.882;2024-02-16T11:34:32;9.65;;;5.70;;
38379;SDS011;38377;47.418;18.882;2024-02-16T11:37:02;13.63;;;6.72;;
38379;SDS011;38377;47.418;18.882;2024-02-16T11:39:28;10.98;;;7.43;;
38379;SDS011;38377;47.418;18.882;2024-02-16T11:42:04;11.63;;;6.82;;
38379;SDS011;38377;47.418;18.882;2024-02-16T11:44:37;13.82;;;7.35;;
38379;SDS011;38377;47.418;18.882;2024-02-16T11:47:06;9.90;;;6.35;;
38379;SDS011;38377;47.418;18.882;2024-02-16T11:52:03;10.90;;;6.47;;
38379;SDS011;38377;47.418;18.882;2024-02-16T11:54:29;19.50;;;7.03;;
38379;SDS011;38377;47.418;18.882;2024-02-16T11:56:56;11.25;;;8.05;;
38379;SDS011;38377;47.418;18.882;2024-02-16T11:59:22;11.50;;;6.80;;
38379;SDS011;38377;47.418;18.882;2024-02-16T12:01:51;9.68;;;6.10;;
38379;SDS011;38377;47.418;18.882;2024-02-16T12:04:21;12.35;;;6.38;;
38379;SDS011;38377;47.418;18.882;2024-02-16T12:06:47;9.35;;;5.78;;
38379;SDS011;38377;47.418;18.882;2024-02-16T12:09:15;8.20;;;6.03;;
38379;SDS011;38377;47.418;18.882;2024-02-16T12:11:41;10.38;;;6.20;;
38379;SDS011;38377;47.418;18.882;2024-02-16T12:14:07;10.57;;;6.70;;
38379;SDS011;38377;47.418;18.882;2024-02-16T12:16:33;10.05;;;6.15;;
38379;SDS011;38377;47.418;18.882;2024-02-16T12:19:02;7.20;;;4.93;;
38379;SDS011;38377;47.418;18.882;2024-02-16T12:21:31;8.65;;;4.85;;
38379;SDS011;38377;47.418;18.882;2024-02-16T12:23:57;10.68;;;6.60;;
38379;SDS011;38377;47.418;18.882;2024-02-16T12:26:22;13.27;;;6.38;;
38379;SDS011;38377;47.418;18.882;2024-02-16T12:28:48;11.75;;;6.20;;
38379;SDS011;38377;47.418;18.882;2024-02-16T12:31:18;10.65;;;5.63;;
38379;SDS011;38377;47.418;18.882;2024-02-16T12:33:46;9.43;;;5.28;;
38379;SDS011;38377;47.418;18.882;2024-02-16T12:36:12;9.15;;;6.20;;
38379;SDS011;38377;47.418;18.882;2024-02-16T12:38:38;8.43;;;5.97;;
38379;SDS011;38377;47.418;18.882;2024-02-16T12:41:05;10.63;;;5.00;;
38379;SDS011;38377;47.418;18.882;2024-02-16T12:43:30;10.63;;;5.68;;
38379;SDS011;38377;47.418;18.882;2024-02-16T12:45:56;10.57;;;5.70;;
38379;SDS011;38377;47.418;18.882;2024-02-16T12:48:22;9.90;;;6.35;;
38379;SDS011;38377;47.418;18.882;2024-02-16T12:50:48;15.32;;;6.78;;
38379;SDS011;38377;47.418;18.882;2024-02-16T12:53:14;10.45;;;7.07;;
38379;SDS011;38377;47.418;18.882;2024-02-16T12:55:40;11.60;;;6.43;;
38379;SDS011;38377;47.418;18.882;2024-02-16T12:58:06;7.93;;;5.45;;
38379;SDS011;38377;47.418;18.882;2024-02-16T13:00:32;9.88;;;5.82;;
38379;SDS011;38377;47.418;18.882;2024-02-16T13:02:57;9.57;;;6.22;;
38379;SDS011;38377;47.418;18.882;2024-02-16T13:05:23;10.90;;;5.75;;
38379;SDS011;38377;47.418;18.882;2024-02-16T13:07:48;10.57;;;5.78;;
38379;SDS011;38377;47.418;18.882;2024-02-16T13:10:14;8.70;;;5.90;;
38379;SDS011;38377;47.418;18.882;2024-02-16T13:12:40;8.23;;;5.55;;
38379;SDS011;38377;47.418;18.882;2024-02-16T13:15:07;8.70;;;5.85;;
38379;SDS011;38377;47.418;18.882;2024-02-16T13:17:33;10.52;;;5.80;;
38379;SDS011;38377;47.418;18.882;2024-02-16T13:19:59;16.77;;;6.15;;
38379;SDS011;38377;47.418;18.882;2024-02-16T13:22:32;8.10;;;4.97;;
38379;SDS011;38377;47.418;18.882;2024-02-16T13:24:58;15.27;;;6.70;;
38379;SDS011;38377;47.418;18.882;2024-02-16T13:27:24;9.52;;;4.85;;
38379;SDS011;38377;47.418;18.882;2024-02-16T13:29:50;7.78;;;5.60;;
38379;SDS011;38377;47.418;18.882;2024-02-16T13:32:16;8.60;;;5.70;;
38379;SDS011;38377;47.418;18.882;2024-02-16T13:34:42;8.00;;;5.47;;
38379;SDS011;38377;47.418;18.882;2024-02-16T13:37:07;7.97;;;5.78;;
38379;SDS011;38377;47.418;18.882;2024-02-16T13:39:33;7.38;;;4.78;;
38379;SDS011;38377;47.418;18.882;2024-02-16T13:41:59;9.30;;;5.22;;
38379;SDS011;38377;47.418;18.882;2024-02-16T13:44:24;7.82;;;5.43;;
38379;SDS011;38377;47.418;18.882;2024-02-16T13:46:50;10.13;;;5.30;;
38379;SDS011;38377;47.418;18.882;2024-02-16T13:49:16;8.23;;;4.88;;
38379;SDS011;38377;47.418;18.882;2024-02-16T13:51:41;8.10;;;5.07;;
38379;SDS011;38377;47.418;18.882;2024-02-16T13:54:07;7.85;;;5.00;;
38379;SDS011;38377;47.418;18.882;2024-02-16T13:56:33;9.48;;;5.85;;
38379;SDS011;38377;47.418;18.882;2024-02-16T13:59:01;6.70;;;4.65;;
38379;SDS011;38377;47.418;18.882;2024-02-16T14:01:27;10.10;;;6.13;;
38379;SDS011;38377;47.418;18.882;2024-02-16T14:03:54;9.55;;;6.00;;
38379;SDS011;38377;47.418;18.882;2024-02-16T14:06:20;8.32;;;5.30;;
38379;SDS011;38377;47.418;18.882;2024-02-16T14:08:46;8.52;;;5.20;;
38379;SDS011;38377;47.418;18.882;2024-02-16T14:11:14;9.07;;;5.53;;
38379;SDS011;38377;47.418;18.882;2024-02-16T14:13:39;9.73;;;5.68;;
38379;SDS011;38377;47.418;18.882;2024-02-16T14:16:05;8.30;;;5.65;;
38379;SDS011;38377;47.418;18.882;2024-02-16T14:18:31;12.15;;;6.13;;
38379;SDS011;38377;47.418;18.882;2024-02-16T14:20:56;10.18;;;6.10;;